sensor_id;sensor_type;location;lat;lon;timestamp;pressure;altitude;pressure_sealevel;temperature;humidity
78986;BME280;68384;55.750;48.746;2023-12-29T00:00:13;97770.03;;;-8.99;100.00
78986;BME280;68384;55.750;48.746;2023-12-29T00:01:17;97774.16;;;-8.99;100.00
78986;BME280;68384;55.750;48.746;2023-12-29T00:02:20;97775.78;;;-9.00;100.00
78986;BME280;68384;55.750;48.746;2023-12-29T00:03:22;97770.78;;;-9.00;100.00
78986;BME280;68384;55.750;48.746;2023-12-29T00:04:25;97781.16;;;-8.95;100.00
78986;BME280;68384;55.750;48.746;2023-12-29T00:05:28;97779.28;;;-8.98;100.00
78986;BME280;68384;55.750;48.746;2023-12-29T00:06:30;97763.47;;;-8.97;100.00
78986;BME280;68384;55.750;48.746;2023-12-29T00:07:32;97758.56;;;-8.95;100.00
78986;BME280;68384;55.750;48.746;2023-12-29T00:08:36;97774.94;;;-8.89;100.00
78986;BME280;68384;55.750;48.746;2023-12-29T00:09:39;97769.91;;;-8.89;100.00
78986;BME280;68384;55.750;48.746;2023-12-29T00:10:43;97767.53;;;-8.87;100.00
78986;BME280;68384;55.750;48.746;2023-12-29T00:11:50;97766.00;;;-8.85;100.00
78986;BME280;68384;55.750;48.746;2023-12-29T00:12:52;97755.72;;;-8.88;100.00
78986;BME280;68384;55.750;48.746;2023-12-29T00:13:55;97764.59;;;-8.82;100.00
78986;BME280;68384;55.750;48.746;2023-12-29T00:14:57;97754.44;;;-8.83;100.00
78986;BME280;68384;55.750;48.746;2023-12-29T00:15:59;97771.13;;;-8.84;100.00
78986;BME280;68384;55.750;48.746;2023-12-29T00:17:02;97757.72;;;-8.84;100.00
78986;BME280;68384;55.750;48.746;2023-12-29T00:18:05;97761.22;;;-8.82;100.00
78986;BME280;68384;55.750;48.746;2023-12-29T00:19:07;97763.81;;;-8.81;100.00
78986;BME280;68384;55.750;48.746;2023-12-29T00:20:10;97765.34;;;-8.83;100.00
78986;BME280;68384;55.750;48.746;2023-12-29T00:21:13;97765.44;;;-8.81;100.00
78986;BME280;68384;55.750;48.746;2023-12-29T00:22:18;97766.88;;;-8.85;100.00
78986;BME280;68384;55.750;48.746;2023-12-29T00:23:20;97768.59;;;-8.84;100.00
78986;BME280;68384;55.750;48.746;2023-12-29T00:24:22;97766.75;;;-8.86;100.00
78986;BME280;68384;55.750;48.746;2023-12-29T00:25:24;97765.34;;;-8.83;100.00
78986;BME280;68384;55.750;48.746;2023-12-29T00:26:27;97752.47;;;-8.87;100.00
78986;BME280;68384;55.750;48.746;2023-12-29T00:27:31;97758.47;;;-8.85;100.00
78986;BME280;68384;55.750;48.746;2023-12-29T00:28:33;97757.81;;;-8.83;100.00
78986;BME280;68384;55.750;48.746;2023-12-29T00:29:38;97764.16;;;-8.88;100.00
78986;BME280;68384;55.750;48.746;2023-12-29T00:30:41;97763.59;;;-8.84;100.00
78986;BME280;68384;55.750;48.746;2023-12-29T00:32:01;97756.84;;;-8.85;100.00
78986;BME280;68384;55.750;48.746;2023-12-29T00:33:06;97747.88;;;-8.81;100.00
78986;BME280;68384;55.750;48.746;2023-12-29T00:34:09;97758.47;;;-8.85;100.00
78986;BME280;68384;55.750;48.746;2023-12-29T00:35:11;97749.63;;;-8.80;100.00
78986;BME280;68384;55.750;48.746;2023-12-29T00:36:17;97747.88;;;-8.81;100.00
78986;BME280;68384;55.750;48.746;2023-12-29T00:37:20;97752.22;;;-8.78;100.00
78986;BME280;68384;55.750;48.746;2023-12-29T00:38:22;97751.63;;;-8.76;100.00
78986;BME280;68384;55.750;48.746;2023-12-29T00:39:25;97730.66;;;-8.76;100.00
78986;BME280;68384;55.750;48.746;2023-12-29T00:40:32;97750.81;;;-8.75;100.00
78986;BME280;68384;55.750;48.746;2023-12-29T00:41:35;97737.41;;;-8.75;100.00
78986;BME280;68384;55.750;48.746;2023-12-29T00:42:38;97748.31;;;-8.75;100.00
78986;BME280;68384;55.750;48.746;2023-12-29T00:43:41;97740.91;;;-8.73;100.00
78986;BME280;68384;55.750;48.746;2023-12-29T00:44:43;97737.63;;;-8.72;100.00
78986;BME280;68384;55.750;48.746;2023-12-29T00:45:49;97731.63;;;-8.74;100.00
78986;BME280;68384;55.750;48.746;2023-12-29T00:46:55;97743.19;;;-8.65;100.00
78986;BME280;68384;55.750;48.746;2023-12-29T00:48:01;97741.56;;;-8.64;100.00
78986;BME280;68384;55.750;48.746;2023-12-29T00:49:04;97738.50;;;-8.60;100.00
78986;BME280;68384;55.750;48.746;2023-12-29T00:51:48;97738.28;;;-8.63;100.00
78986;BME280;68384;55.750;48.746;2023-12-29T00:52:50;97739.69;;;-8.67;100.00
78986;BME280;68384;55.750;48.746;2023-12-29T00:53:52;97733.25;;;-8.63;100.00
78986;BME280;68384;55.750;48.746;2023-12-29T00:54:55;97729.88;;;-8.64;100.00
78986;BME280;68384;55.750;48.746;2023-12-29T00:55:58;97744.41;;;-8.60;100.00
78986;BME280;68384;55.750;48.746;2023-12-29T00:57:01;97743.53;;;-8.60;100.00
78986;BME280;68384;55.750;48.746;2023-12-29T00:58:03;97741.13;;;-8.59;100.00
78986;BME280;68384;55.750;48.746;2023-12-29T00:59:06;97736.09;;;-8.59;100.00
78986;BME280;68384;55.750;48.746;2023-12-29T01:00:11;97730.00;;;-8.62;100.00
78986;BME280;68384;55.750;48.746;2023-12-29T01:01:14;97729.34;;;-8.60;100.00
78986;BME280;68384;55.750;48.746;2023-12-29T01:02:16;97737.09;;;-8.57;100.00
78986;BME280;68384;55.750;48.746;2023-12-29T01:03:18;97732.16;;;-8.55;100.00
78986;BME280;68384;55.750;48.746;2023-12-29T01:04:25;97732.16;;;-8.55;100.00
78986;BME280;68384;55.750;48.746;2023-12-29T01:07:33;97726.28;;;-8.56;100.00
78986;BME280;68384;55.750;48.746;2023-12-29T01:08:35;97719.63;;;-8.55;100.00
78986;BME280;68384;55.750;48.746;2023-12-29T01:09:38;97701.16;;;-8.67;100.00
78986;BME280;68384;55.750;48.746;2023-12-29T01:10:43;97709.13;;;-8.61;100.00
78986;BME280;68384;55.750;48.746;2023-12-29T01:11:45;97724.84;;;-8.52;100.00
78986;BME280;68384;55.750;48.746;2023-12-29T01:12:48;97715.25;;;-8.46;100.00
78986;BME280;68384;55.750;48.746;2023-12-29T01:13:50;97722.00;;;-8.45;100.00
78986;BME280;68384;55.750;48.746;2023-12-29T01:14:52;97705.41;;;-8.43;100.00
78986;BME280;68384;55.750;48.746;2023-12-29T01:15:54;97709.00;;;-8.40;100.00
78986;BME280;68384;55.750;48.746;2023-12-29T01:16:56;97708.25;;;-8.39;100.00
78986;BME280;68384;55.750;48.746;2023-12-29T01:18:00;97705.59;;;-8.40;100.00
78986;BME280;68384;55.750;48.746;2023-12-29T01:19:04;97699.81;;;-8.39;100.00
78986;BME280;68384;55.750;48.746;2023-12-29T01:20:07;97694.06;;;-8.38;100.00
78986;BME280;68384;55.750;48.746;2023-12-29T01:21:10;97706.69;;;-8.37;100.00
78986;BME280;68384;55.750;48.746;2023-12-29T01:22:12;97709.34;;;-8.35;100.00
78986;BME280;68384;55.750;48.746;2023-12-29T01:23:14;97699.28;;;-8.35;100.00
78986;BME280;68384;55.750;48.746;2023-12-29T01:24:16;97700.13;;;-8.35;100.00
78986;BME280;68384;55.750;48.746;2023-12-29T01:25:27;97700.03;;;-8.36;100.00
78986;BME280;68384;55.750;48.746;2023-12-29T01:26:29;97694.25;;;-8.35;100.00
78986;BME280;68384;55.750;48.746;2023-12-29T01:27:31;97706.81;;;-8.35;100.00
78986;BME280;68384;55.750;48.746;2023-12-29T01:28:34;97705.28;;;-8.33;100.00
78986;BME280;68384;55.750;48.746;2023-12-29T01:29:38;97707.00;;;-8.32;100.00
78986;BME280;68384;55.750;48.746;2023-12-29T01:30:41;97697.75;;;-8.33;100.00
78986;BME280;68384;55.750;48.746;2023-12-29T01:31:44;97702.19;;;-8.29;100.00
78986;BME280;68384;55.750;48.746;2023-12-29T01:32:46;97705.50;;;-8.30;100.00
78986;BME280;68384;55.750;48.746;2023-12-29T01:33:49;97699.81;;;-8.28;100.00
78986;BME280;68384;55.750;48.746;2023-12-29T01:34:52;97709.28;;;-8.24;100.00
78986;BME280;68384;55.750;48.746;2023-12-29T01:35:55;97701.66;;;-8.25;100.00
78986;BME280;68384;55.750;48.746;2023-12-29T01:36:59;97704.84;;;-8.28;100.00
78986;BME280;68384;55.750;48.746;2023-12-29T01:38:02;97708.00;;;-8.18;100.00
78986;BME280;68384;55.750;48.746;2023-12-29T01:39:05;97708.63;;;-8.21;100.00
78986;BME280;68384;55.750;48.746;2023-12-29T01:40:08;97698.69;;;-8.19;100.00
78986;BME280;68384;55.750;48.746;2023-12-29T01:41:10;97700.66;;;-8.15;100.00
78986;BME280;68384;55.750;48.746;2023-12-29T01:42:13;97691.69;;;-8.12;100.00
78986;BME280;68384;55.750;48.746;2023-12-29T01:43:18;97693.22;;;-8.14;100.00
78986;BME280;68384;55.750;48.746;2023-12-29T01:44:21;97693.31;;;-8.12;100.00
78986;BME280;68384;55.750;48.746;2023-12-29T01:45:24;97689.28;;;-8.10;100.00
78986;BME280;68384;55.750;48.746;2023-12-29T01:46:29;97690.13;;;-8.10;100.00
78986;BME280;68384;55.750;48.746;2023-12-29T01:47:32;97690.06;;;-8.11;100.00
78986;BME280;68384;55.750;48.746;2023-12-29T01:48:34;97690.34;;;-8.07;100.00
78986;BME280;68384;55.750;48.746;2023-12-29T01:49:37;97689.69;;;-8.04;100.00
78986;BME280;68384;55.750;48.746;2023-12-29T01:50:40;97683.91;;;-8.03;100.00
78986;BME280;68384;55.750;48.746;2023-12-29T01:51:43;97690.03;;;-8.00;100.00
78986;BME280;68384;55.750;48.746;2023-12-29T01:52:46;97681.69;;;-7.99;100.00
78986;BME280;68384;55.750;48.746;2023-12-29T01:53:50;97692.94;;;-7.94;100.00
78986;BME280;68384;55.750;48.746;2023-12-29T01:54:53;97683.66;;;-7.95;100.00
78986;BME280;68384;55.750;48.746;2023-12-29T01:55:56;97683.53;;;-7.96;100.00
78986;BME280;68384;55.750;48.746;2023-12-29T01:57:02;97685.50;;;-7.92;100.00
78986;BME280;68384;55.750;48.746;2023-12-29T01:58:04;97687.34;;;-7.90;100.00
78986;BME280;68384;55.750;48.746;2023-12-29T01:59:07;97681.13;;;-7.83;100.00
78986;BME280;68384;55.750;48.746;2023-12-29T02:00:20;97677.81;;;-7.82;100.00
78986;BME280;68384;55.750;48.746;2023-12-29T02:01:22;97688.00;;;-7.81;100.00
78986;BME280;68384;55.750;48.746;2023-12-29T02:02:25;97685.25;;;-7.84;100.00
78986;BME280;68384;55.750;48.746;2023-12-29T02:03:27;97691.47;;;-7.79;100.00
78986;BME280;68384;55.750;48.746;2023-12-29T02:04:30;97693.41;;;-7.75;100.00
78986;BME280;68384;55.750;48.746;2023-12-29T02:05:34;97680.84;;;-7.75;100.00
78986;BME280;68384;55.750;48.746;2023-12-29T02:06:37;97692.84;;;-7.71;100.00
78986;BME280;68384;55.750;48.746;2023-12-29T02:07:41;97687.91;;;-7.69;100.00
78986;BME280;68384;55.750;48.746;2023-12-29T02:08:44;97683.75;;;-7.69;100.00
78986;BME280;68384;55.750;48.746;2023-12-29T02:09:46;97683.22;;;-7.65;100.00
78986;BME280;68384;55.750;48.746;2023-12-29T02:10:49;97693.28;;;-7.65;100.00
78986;BME280;68384;55.750;48.746;2023-12-29T02:11:51;97683.97;;;-7.66;100.00
78986;BME280;68384;55.750;48.746;2023-12-29T02:12:54;97682.88;;;-7.69;100.00
78986;BME280;68384;55.750;48.746;2023-12-29T02:13:59;97685.94;;;-7.62;100.00
78986;BME280;68384;55.750;48.746;2023-12-29T02:15:05;97688.25;;;-7.65;100.00
78986;BME280;68384;55.750;48.746;2023-12-29T02:16:13;97689.41;;;-7.59;100.00
78986;BME280;68384;55.750;48.746;2023-12-29T02:17:27;97692.22;;;-7.55;100.00
78986;BME280;68384;55.750;48.746;2023-12-29T02:18:32;97693.22;;;-7.53;100.00
78986;BME280;68384;55.750;48.746;2023-12-29T02:19:39;97689.16;;;-7.51;100.00
78986;BME280;68384;55.750;48.746;2023-12-29T02:20:42;97686.66;;;-7.51;100.00
78986;BME280;68384;55.750;48.746;2023-12-29T02:21:46;97693.81;;;-7.44;100.00
78986;BME280;68384;55.750;48.746;2023-12-29T02:22:48;97683.75;;;-7.44;100.00
78986;BME280;68384;55.750;48.746;2023-12-29T02:23:52;97683.06;;;-7.41;100.00
78986;BME280;68384;55.750;48.746;2023-12-29T02:24:56;97682.31;;;-7.40;100.00
78986;BME280;68384;55.750;48.746;2023-12-29T02:26:03;97689.19;;;-7.38;100.00
78986;BME280;68384;55.750;48.746;2023-12-29T02:28:27;97687.56;;;-7.37;100.00
78986;BME280;68384;55.750;48.746;2023-12-29T02:29:30;97685.13;;;-7.36;100.00
78986;BME280;68384;55.750;48.746;2023-12-29T02:31:01;97685.91;;;-7.37;100.00
78986;BME280;68384;55.750;48.746;2023-12-29T02:32:12;97688.63;;;-7.34;100.00
78986;BME280;68384;55.750;48.746;2023-12-29T02:33:21;97689.09;;;-7.39;100.00
78986;BME280;68384;55.750;48.746;2023-12-29T02:34:24;97687.84;;;-7.33;100.00
78986;BME280;68384;55.750;48.746;2023-12-29T02:35:28;97687.75;;;-7.34;100.00
78986;BME280;68384;55.750;48.746;2023-12-29T02:36:31;97683.09;;;-7.28;100.00
78986;BME280;68384;55.750;48.746;2023-12-29T02:37:36;97684.56;;;-7.32;100.00
78986;BME280;68384;55.750;48.746;2023-12-29T02:38:39;97678.94;;;-7.28;100.00
78986;BME280;68384;55.750;48.746;2023-12-29T02:39:41;97689.22;;;-7.25;100.00
78986;BME280;68384;55.750;48.746;2023-12-29T02:40:44;97679.94;;;-7.26;100.00
78986;BME280;68384;55.750;48.746;2023-12-29T02:41:46;97679.28;;;-7.23;100.00
78986;BME280;68384;55.750;48.746;2023-12-29T02:42:49;97677.72;;;-7.21;100.00
78986;BME280;68384;55.750;48.746;2023-12-29T02:43:51;97677.81;;;-7.20;100.00
78986;BME280;68384;55.750;48.746;2023-12-29T02:44:53;97679.66;;;-7.17;100.00
78986;BME280;68384;55.750;48.746;2023-12-29T02:45:56;97674.06;;;-7.13;100.00
78986;BME280;68384;55.750;48.746;2023-12-29T02:46:58;97646.56;;;-7.10;100.00
78986;BME280;68384;55.750;48.746;2023-12-29T02:48:01;97666.69;;;-7.10;100.00
78986;BME280;68384;55.750;48.746;2023-12-29T02:49:04;97673.94;;;-7.15;100.00
78986;BME280;68384;55.750;48.746;2023-12-29T02:50:07;97672.41;;;-7.13;100.00
78986;BME280;68384;55.750;48.746;2023-12-29T02:51:10;97662.16;;;-7.16;100.00
78986;BME280;68384;55.750;48.746;2023-12-29T02:52:12;97668.25;;;-7.12;100.00
78986;BME280;68384;55.750;48.746;2023-12-29T02:53:14;97663.78;;;-7.16;100.00
78986;BME280;68384;55.750;48.746;2023-12-29T02:54:16;97659.72;;;-7.14;100.00
78986;BME280;68384;55.750;48.746;2023-12-29T02:55:20;97656.63;;;-7.10;100.00
78986;BME280;68384;55.750;48.746;2023-12-29T02:56:23;97667.25;;;-7.14;100.00
78986;BME280;68384;55.750;48.746;2023-12-29T02:57:25;97676.38;;;-7.16;100.00
78986;BME280;68384;55.750;48.746;2023-12-29T02:58:27;97666.97;;;-7.19;100.00
78986;BME280;68384;55.750;48.746;2023-12-29T02:59:29;97664.53;;;-7.17;100.00
78986;BME280;68384;55.750;48.746;2023-12-29T03:00:31;97660.78;;;-7.24;100.00
78986;BME280;68384;55.750;48.746;2023-12-29T03:01:34;97657.78;;;-7.18;100.00
78986;BME280;68384;55.750;48.746;2023-12-29T03:02:36;97666.00;;;-7.21;100.00
78986;BME280;68384;55.750;48.746;2023-12-29T03:03:38;97663.56;;;-7.19;100.00
78986;BME280;68384;55.750;48.746;2023-12-29T03:04:42;97658.00;;;-7.15;100.00
78986;BME280;68384;55.750;48.746;2023-12-29T03:05:44;97664.53;;;-7.17;100.00
78986;BME280;68384;55.750;48.746;2023-12-29T03:06:47;97659.91;;;-7.11;100.00
78986;BME280;68384;55.750;48.746;2023-12-29T03:07:49;97656.31;;;-7.15;100.00
78986;BME280;68384;55.750;48.746;2023-12-29T03:08:52;97661.25;;;-7.16;100.00
78986;BME280;68384;55.750;48.746;2023-12-29T03:09:55;97661.56;;;-7.12;100.00
78986;BME280;68384;55.750;48.746;2023-12-29T03:10:58;97662.44;;;-7.11;100.00
78986;BME280;68384;55.750;48.746;2023-12-29T03:12:00;97662.81;;;-7.18;100.00
78986;BME280;68384;55.750;48.746;2023-12-29T03:13:02;97652.63;;;-7.20;100.00
78986;BME280;68384;55.750;48.746;2023-12-29T03:14:06;97663.09;;;-7.14;100.00
78986;BME280;68384;55.750;48.746;2023-12-29T03:15:08;97668.06;;;-7.15;100.00
78986;BME280;68384;55.750;48.746;2023-12-29T03:16:11;97657.31;;;-7.13;100.00
78986;BME280;68384;55.750;48.746;2023-12-29T03:17:14;97650.44;;;-7.15;100.00
78986;BME280;68384;55.750;48.746;2023-12-29T03:18:16;97648.97;;;-7.12;100.00
78986;BME280;68384;55.750;48.746;2023-12-29T03:19:18;97663.03;;;-7.15;100.00
78986;BME280;68384;55.750;48.746;2023-12-29T03:20:24;97658.84;;;-7.15;100.00
78986;BME280;68384;55.750;48.746;2023-12-29T03:21:29;97654.69;;;-7.14;100.00
78986;BME280;68384;55.750;48.746;2023-12-29T03:22:31;97653.03;;;-7.14;100.00
78986;BME280;68384;55.750;48.746;2023-12-29T03:23:34;97661.47;;;-7.13;100.00
78986;BME280;68384;55.750;48.746;2023-12-29T03:24:42;97654.88;;;-7.11;100.00
78986;BME280;68384;55.750;48.746;2023-12-29T03:25:44;97654.59;;;-7.16;100.00
78986;BME280;68384;55.750;48.746;2023-12-29T03:26:47;97661.25;;;-7.16;100.00
78986;BME280;68384;55.750;48.746;2023-12-29T03:27:49;97641.13;;;-7.16;100.00
78986;BME280;68384;55.750;48.746;2023-12-29T03:28:51;97644.59;;;-7.14;100.00
78986;BME280;68384;55.750;48.746;2023-12-29T03:29:53;97637.72;;;-7.17;100.00
78986;BME280;68384;55.750;48.746;2023-12-29T03:30:56;97647.91;;;-7.15;100.00
78986;BME280;68384;55.750;48.746;2023-12-29T03:31:58;97642.88;;;-7.15;100.00
78986;BME280;68384;55.750;48.746;2023-12-29T03:33:01;97638.81;;;-7.13;100.00
78986;BME280;68384;55.750;48.746;2023-12-29T03:34:07;97643.38;;;-7.21;100.00
78986;BME280;68384;55.750;48.746;2023-12-29T03:35:09;97653.50;;;-7.19;100.00
78986;BME280;68384;55.750;48.746;2023-12-29T03:36:11;97644.25;;;-7.20;100.00
78986;BME280;68384;55.750;48.746;2023-12-29T03:37:15;97647.31;;;-7.24;100.00
78986;BME280;68384;55.750;48.746;2023-12-29T03:38:17;97639.09;;;-7.22;100.00
78986;BME280;68384;55.750;48.746;2023-12-29T03:39:19;97645.00;;;-7.21;100.00
78986;BME280;68384;55.750;48.746;2023-12-29T03:40:21;97647.88;;;-7.28;100.00
78986;BME280;68384;55.750;48.746;2023-12-29T03:41:24;97652.63;;;-7.33;100.00
78986;BME280;68384;55.750;48.746;2023-12-29T03:42:26;97644.09;;;-7.35;100.00
78986;BME280;68384;55.750;48.746;2023-12-29T03:43:28;97653.28;;;-7.35;100.00
78986;BME280;68384;55.750;48.746;2023-12-29T03:44:30;97647.50;;;-7.34;100.00
78986;BME280;68384;55.750;48.746;2023-12-29T03:45:33;97633.84;;;-7.38;100.00
78986;BME280;68384;55.750;48.746;2023-12-29T03:46:35;97638.13;;;-7.37;100.00
78986;BME280;68384;55.750;48.746;2023-12-29T03:47:38;97642.06;;;-7.40;100.00
78986;BME280;68384;55.750;48.746;2023-12-29T03:48:40;97635.19;;;-7.43;100.00
78986;BME280;68384;55.750;48.746;2023-12-29T03:49:43;97645.34;;;-7.41;100.00
78986;BME280;68384;55.750;48.746;2023-12-29T03:50:45;97638.47;;;-7.44;100.00
78986;BME280;68384;55.750;48.746;2023-12-29T03:51:47;97642.53;;;-7.46;100.00
78986;BME280;68384;55.750;48.746;2023-12-29T03:52:50;97637.50;;;-7.46;100.00
78986;BME280;68384;55.750;48.746;2023-12-29T03:53:52;97640.50;;;-7.38;100.00
78986;BME280;68384;55.750;48.746;2023-12-29T03:54:54;97637.22;;;-7.37;100.00
78986;BME280;68384;55.750;48.746;2023-12-29T03:55:56;97635.38;;;-7.40;100.00
78986;BME280;68384;55.750;48.746;2023-12-29T03:56:58;97630.56;;;-7.37;100.00
78986;BME280;68384;55.750;48.746;2023-12-29T03:58:02;97631.72;;;-7.32;100.00
78986;BME280;68384;55.750;48.746;2023-12-29T03:59:05;97635.13;;;-7.31;100.00
78986;BME280;68384;55.750;48.746;2023-12-29T04:00:12;97612.06;;;-7.37;100.00
78986;BME280;68384;55.750;48.746;2023-12-29T04:01:16;97635.50;;;-7.25;100.00
78986;BME280;68384;55.750;48.746;2023-12-29T04:02:20;97637.16;;;-7.26;100.00
78986;BME280;68384;55.750;48.746;2023-12-29T04:03:22;97633.19;;;-7.22;100.00
78986;BME280;68384;55.750;48.746;2023-12-29T04:04:29;97635.81;;;-7.21;100.00
78986;BME280;68384;55.750;48.746;2023-12-29T04:05:31;97631.75;;;-7.19;100.00
78986;BME280;68384;55.750;48.746;2023-12-29T04:06:34;97630.19;;;-7.17;100.00
78986;BME280;68384;55.750;48.746;2023-12-29T04:07:39;97631.06;;;-7.16;100.00
78986;BME280;68384;55.750;48.746;2023-12-29T04:08:42;97628.63;;;-7.15;100.00
78986;BME280;68384;55.750;48.746;2023-12-29T04:09:44;97623.50;;;-7.16;100.00
78986;BME280;68384;55.750;48.746;2023-12-29T04:10:46;97627.78;;;-7.15;100.00
78986;BME280;68384;55.750;48.746;2023-12-29T04:11:49;97634.53;;;-7.14;100.00
78986;BME280;68384;55.750;48.746;2023-12-29T04:12:51;97626.97;;;-7.14;100.00
78986;BME280;68384;55.750;48.746;2023-12-29T04:13:53;97624.47;;;-7.14;100.00
78986;BME280;68384;55.750;48.746;2023-12-29T04:14:56;97628.75;;;-7.13;100.00
78986;BME280;68384;55.750;48.746;2023-12-29T04:15:59;97626.97;;;-7.14;100.00
78986;BME280;68384;55.750;48.746;2023-12-29T04:17:02;97634.66;;;-7.13;100.00
78986;BME280;68384;55.750;48.746;2023-12-29T04:18:06;97629.03;;;-7.09;100.00
78986;BME280;68384;55.750;48.746;2023-12-29T04:19:08;97625.63;;;-7.09;100.00
78986;BME280;68384;55.750;48.746;2023-12-29T04:20:12;97624.00;;;-7.09;100.00
78986;BME280;68384;55.750;48.746;2023-12-29T04:21:14;97627.59;;;-7.05;100.00
78986;BME280;68384;55.750;48.746;2023-12-29T04:22:17;97625.25;;;-7.02;100.00
78986;BME280;68384;55.750;48.746;2023-12-29T04:23:19;97619.56;;;-6.99;100.00
78986;BME280;68384;55.750;48.746;2023-12-29T04:24:21;97621.97;;;-7.01;100.00
78986;BME280;68384;55.750;48.746;2023-12-29T04:25:24;97614.59;;;-6.98;100.00
78986;BME280;68384;55.750;48.746;2023-12-29T04:26:26;97619.81;;;-6.95;100.00
78986;BME280;68384;55.750;48.746;2023-12-29T04:27:28;97619.81;;;-6.95;100.00
78986;BME280;68384;55.750;48.746;2023-12-29T04:28:30;97626.34;;;-6.98;100.00
78986;BME280;68384;55.750;48.746;2023-12-29T04:29:33;97625.16;;;-7.04;100.00
78986;BME280;68384;55.750;48.746;2023-12-29T04:30:36;97621.00;;;-7.03;100.00
78986;BME280;68384;55.750;48.746;2023-12-29T04:31:38;97617.59;;;-7.04;100.00
78986;BME280;68384;55.750;48.746;2023-12-29T04:32:41;97626.63;;;-7.07;100.00
78986;BME280;68384;55.750;48.746;2023-12-29T04:33:43;97632.69;;;-7.04;100.00
78986;BME280;68384;55.750;48.746;2023-12-29T04:34:45;97629.34;;;-7.04;100.00
78986;BME280;68384;55.750;48.746;2023-12-29T04:35:48;97620.50;;;-7.11;100.00
78986;BME280;68384;55.750;48.746;2023-12-29T04:36:50;97627.97;;;-7.12;100.00
78986;BME280;68384;55.750;48.746;2023-12-29T04:37:53;97622.81;;;-7.14;100.00
78986;BME280;68384;55.750;48.746;2023-12-29T04:38:55;97614.41;;;-7.14;100.00
78986;BME280;68384;55.750;48.746;2023-12-29T04:39:57;97621.19;;;-7.13;100.00
78986;BME280;68384;55.750;48.746;2023-12-29T04:41:00;97618.88;;;-7.10;100.00
78986;BME280;68384;55.750;48.746;2023-12-29T04:42:02;97618.56;;;-7.15;100.00
78986;BME280;68384;55.750;48.746;2023-12-29T04:43:04;97621.28;;;-7.12;100.00
78986;BME280;68384;55.750;48.746;2023-12-29T04:44:06;97628.75;;;-7.13;100.00
78986;BME280;68384;55.750;48.746;2023-12-29T04:45:09;97621.06;;;-7.15;100.00
78986;BME280;68384;55.750;48.746;2023-12-29T04:46:12;97625.34;;;-7.14;100.00
78986;BME280;68384;55.750;48.746;2023-12-29T04:47:14;97629.50;;;-7.14;100.00
78986;BME280;68384;55.750;48.746;2023-12-29T04:48:17;97626.03;;;-7.16;100.00
78986;BME280;68384;55.750;48.746;2023-12-29T04:49:19;97626.91;;;-7.16;100.00
78986;BME280;68384;55.750;48.746;2023-12-29T04:50:22;97631.25;;;-7.13;100.00
78986;BME280;68384;55.750;48.746;2023-12-29T04:52:48;97633.78;;;-7.13;100.00
78986;BME280;68384;55.750;48.746;2023-12-29T04:53:51;97633.00;;;-7.12;100.00
78986;BME280;68384;55.750;48.746;2023-12-29T04:54:53;97633.84;;;-7.12;100.00
78986;BME280;68384;55.750;48.746;2023-12-29T04:55:55;97638.22;;;-7.09;100.00
78986;BME280;68384;55.750;48.746;2023-12-29T04:56:57;97637.66;;;-7.05;100.00
78986;BME280;68384;55.750;48.746;2023-12-29T04:58:00;97637.56;;;-7.07;100.00
78986;BME280;68384;55.750;48.746;2023-12-29T04:59:02;97636.78;;;-7.06;100.00
78986;BME280;68384;55.750;48.746;2023-12-29T05:00:05;97637.84;;;-7.02;100.00
78986;BME280;68384;55.750;48.746;2023-12-29T05:01:08;97640.38;;;-7.02;100.00
78986;BME280;68384;55.750;48.746;2023-12-29T05:02:10;97637.84;;;-7.02;100.00
78986;BME280;68384;55.750;48.746;2023-12-29T05:03:13;97642.13;;;-7.01;100.00
78986;BME280;68384;55.750;48.746;2023-12-29T05:04:15;97640.09;;;-7.07;100.00
78986;BME280;68384;55.750;48.746;2023-12-29T05:05:19;97641.94;;;-7.04;100.00
78986;BME280;68384;55.750;48.746;2023-12-29T05:06:21;97641.94;;;-7.04;100.00
78986;BME280;68384;55.750;48.746;2023-12-29T05:07:23;97643.66;;;-7.03;100.00
78986;BME280;68384;55.750;48.746;2023-12-29T05:08:26;97643.66;;;-7.03;100.00
78986;BME280;68384;55.750;48.746;2023-12-29T05:09:28;97642.13;;;-7.01;100.00
78986;BME280;68384;55.750;48.746;2023-12-29T05:10:30;97650.03;;;-7.08;100.00
78986;BME280;68384;55.750;48.746;2023-12-29T05:11:32;97640.09;;;-7.07;100.00
78986;BME280;68384;55.750;48.746;2023-12-29T05:12:34;97640.16;;;-7.05;100.00
78986;BME280;68384;55.750;48.746;2023-12-29T05:13:37;97644.53;;;-7.03;100.00
78986;BME280;68384;55.750;48.746;2023-12-29T05:14:39;97641.72;;;-7.07;100.00
78986;BME280;68384;55.750;48.746;2023-12-29T05:15:41;97635.69;;;-7.09;100.00
78986;BME280;68384;55.750;48.746;2023-12-29T05:16:44;97645.69;;;-7.11;100.00
78986;BME280;68384;55.750;48.746;2023-12-29T05:17:46;97623.78;;;-7.12;100.00
78986;BME280;68384;55.750;48.746;2023-12-29T05:18:48;97634.66;;;-7.13;100.00
78986;BME280;68384;55.750;48.746;2023-12-29T05:19:51;97629.03;;;-7.09;100.00
78986;BME280;68384;55.750;48.746;2023-12-29T05:20:53;97638.53;;;-7.05;100.00
78986;BME280;68384;55.750;48.746;2023-12-29T05:21:55;97637.44;;;-7.08;100.00
78986;BME280;68384;55.750;48.746;2023-12-29T05:22:58;97632.41;;;-7.08;100.00
78986;BME280;68384;55.750;48.746;2023-12-29T05:24:00;97646.97;;;-7.04;100.00
78986;BME280;68384;55.750;48.746;2023-12-29T05:25:02;97637.56;;;-7.07;100.00
78986;BME280;68384;55.750;48.746;2023-12-29T05:26:05;97637.75;;;-7.04;100.00
78986;BME280;68384;55.750;48.746;2023-12-29T05:27:08;97632.69;;;-7.04;100.00
78986;BME280;68384;55.750;48.746;2023-12-29T05:28:10;97633.38;;;-7.06;100.00
78986;BME280;68384;55.750;48.746;2023-12-29T05:29:13;97641.06;;;-7.05;100.00
78986;BME280;68384;55.750;48.746;2023-12-29T05:30:15;97636.91;;;-7.04;100.00
78986;BME280;68384;55.750;48.746;2023-12-29T05:31:18;97646.56;;;-7.10;100.00
78986;BME280;68384;55.750;48.746;2023-12-29T05:32:20;97641.13;;;-7.16;100.00